sensor_id;sensor_type;location;lat;lon;timestamp;P1;durP1;ratioP1;P2;durP2;ratioP2
35257;SDS011;21385;50.878;8.050;2023-09-19T00:00:30;5.15;;;1.08;;
35257;SDS011;21385;50.878;8.050;2023-09-19T00:02:56;1.27;;;0.90;;
35257;SDS011;21385;50.878;8.050;2023-09-19T00:05:25;5.10;;;1.17;;
35257;SDS011;21385;50.878;8.050;2023-09-19T00:07:53;1.30;;;0.68;;
35257;SDS011;21385;50.878;8.050;2023-09-19T00:10:20;2.50;;;0.98;;
35257;SDS011;21385;50.878;8.050;2023-09-19T00:12:55;12.95;;;1.10;;
35257;SDS011;21385;50.878;8.050;2023-09-19T00:17:47;1.35;;;0.90;;
35257;SDS011;21385;50.878;8.050;2023-09-19T00:20:13;4.28;;;1.05;;
35257;SDS011;21385;50.878;8.050;2023-09-19T00:22:42;2.03;;;1.13;;
35257;SDS011;21385;50.878;8.050;2023-09-19T00:25:08;5.38;;;0.90;;
35257;SDS011;21385;50.878;8.050;2023-09-19T00:27:39;1.00;;;0.90;;
35257;SDS011;21385;50.878;8.050;2023-09-19T00:30:07;2.15;;;0.80;;
35257;SDS011;21385;50.878;8.050;2023-09-19T00:32:39;3.67;;;0.80;;
35257;SDS011;21385;50.878;8.050;2023-09-19T00:35:06;0.90;;;0.80;;
35257;SDS011;21385;50.878;8.050;2023-09-19T00:37:34;2.53;;;1.15;;
35257;SDS011;21385;50.878;8.050;2023-09-19T00:40:00;2.85;;;0.63;;
35257;SDS011;21385;50.878;8.050;2023-09-19T00:42:26;10.07;;;1.00;;
35257;SDS011;21385;50.878;8.050;2023-09-19T00:44:53;1.90;;;0.90;;
35257;SDS011;21385;50.878;8.050;2023-09-19T00:47:19;2.95;;;0.93;;
35257;SDS011;21385;50.878;8.050;2023-09-19T00:49:45;3.60;;;1.00;;
35257;SDS011;21385;50.878;8.050;2023-09-19T00:52:18;1.60;;;1.02;;
35257;SDS011;21385;50.878;8.050;2023-09-19T00:54:47;2.45;;;1.17;;
35257;SDS011;21385;50.878;8.050;2023-09-19T00:57:14;0.65;;;0.60;;
35257;SDS011;21385;50.878;8.050;2023-09-19T00:59:44;3.15;;;1.08;;
35257;SDS011;21385;50.878;8.050;2023-09-19T01:02:10;1.73;;;0.80;;
35257;SDS011;21385;50.878;8.050;2023-09-19T01:04:39;6.22;;;1.10;;
35257;SDS011;21385;50.878;8.050;2023-09-19T01:07:05;0.82;;;0.65;;
35257;SDS011;21385;50.878;8.050;2023-09-19T01:09:33;1.65;;;0.77;;
35257;SDS011;21385;50.878;8.050;2023-09-19T01:12:01;4.85;;;1.67;;
35257;SDS011;21385;50.878;8.050;2023-09-19T01:28:51;0.88;;;0.70;;
35257;SDS011;21385;50.878;8.050;2023-09-19T01:31:38;2.00;;;1.23;;
35257;SDS011;21385;50.878;8.050;2023-09-19T01:34:07;1.55;;;0.68;;
35257;SDS011;21385;50.878;8.050;2023-09-19T01:36:37;1.02;;;0.80;;
35257;SDS011;21385;50.878;8.050;2023-09-19T01:39:07;1.83;;;0.90;;
35257;SDS011;21385;50.878;8.050;2023-09-19T01:44:24;0.88;;;0.60;;
35257;SDS011;21385;50.878;8.050;2023-09-19T01:46:58;0.60;;;0.60;;
35257;SDS011;21385;50.878;8.050;2023-09-19T01:49:33;2.53;;;0.68;;
35257;SDS011;21385;50.878;8.050;2023-09-19T01:52:15;3.92;;;0.90;;
35257;SDS011;21385;50.878;8.050;2023-09-19T01:54:52;0.95;;;0.82;;
35257;SDS011;21385;50.878;8.050;2023-09-19T02:00:02;3.03;;;1.45;;
35257;SDS011;21385;50.878;8.050;2023-09-19T02:02:35;1.63;;;1.33;;
35257;SDS011;21385;50.878;8.050;2023-09-19T02:05:03;5.47;;;0.90;;
35257;SDS011;21385;50.878;8.050;2023-09-19T02:07:32;4.15;;;1.00;;
35257;SDS011;21385;50.878;8.050;2023-09-19T02:09:58;3.42;;;0.88;;
35257;SDS011;21385;50.878;8.050;2023-09-19T02:12:25;7.63;;;1.15;;
35257;SDS011;21385;50.878;8.050;2023-09-19T02:14:51;1.98;;;1.05;;
35257;SDS011;21385;50.878;8.050;2023-09-19T02:17:16;1.80;;;1.02;;
35257;SDS011;21385;50.878;8.050;2023-09-19T02:19:42;1.02;;;0.70;;
35257;SDS011;21385;50.878;8.050;2023-09-19T02:22:08;1.20;;;0.75;;
35257;SDS011;21385;50.878;8.050;2023-09-19T02:24:35;10.18;;;1.63;;
35257;SDS011;21385;50.878;8.050;2023-09-19T02:27:04;6.00;;;1.20;;
35257;SDS011;21385;50.878;8.050;2023-09-19T02:29:30;7.22;;;1.02;;
35257;SDS011;21385;50.878;8.050;2023-09-19T02:31:56;1.35;;;0.93;;
35257;SDS011;21385;50.878;8.050;2023-09-19T02:34:22;1.27;;;0.80;;
35257;SDS011;21385;50.878;8.050;2023-09-19T02:36:48;1.17;;;0.93;;
35257;SDS011;21385;50.878;8.050;2023-09-19T02:39:13;1.05;;;0.80;;
35257;SDS011;21385;50.878;8.050;2023-09-19T02:41:39;1.48;;;0.95;;
35257;SDS011;21385;50.878;8.050;2023-09-19T02:44:06;3.22;;;0.95;;
35257;SDS011;21385;50.878;8.050;2023-09-19T02:46:33;4.65;;;1.00;;
35257;SDS011;21385;50.878;8.050;2023-09-19T02:49:01;1.55;;;0.55;;
35257;SDS011;21385;50.878;8.050;2023-09-19T02:51:30;2.78;;;1.15;;
35257;SDS011;21385;50.878;8.050;2023-09-19T02:53:55;2.97;;;0.77;;
35257;SDS011;21385;50.878;8.050;2023-09-19T02:56:21;0.70;;;0.70;;
35257;SDS011;21385;50.878;8.050;2023-09-19T02:58:47;1.77;;;0.93;;
35257;SDS011;21385;50.878;8.050;2023-09-19T03:01:13;2.58;;;1.25;;
35257;SDS011;21385;50.878;8.050;2023-09-19T03:03:43;1.00;;;0.77;;
35257;SDS011;21385;50.878;8.050;2023-09-19T03:06:10;6.80;;;1.25;;
35257;SDS011;21385;50.878;8.050;2023-09-19T03:08:37;7.90;;;0.85;;
35257;SDS011;21385;50.878;8.050;2023-09-19T03:11:04;3.90;;;0.80;;
35257;SDS011;21385;50.878;8.050;2023-09-19T03:13:36;3.33;;;0.95;;
35257;SDS011;21385;50.878;8.050;2023-09-19T03:16:03;0.35;;;0.35;;
35257;SDS011;21385;50.878;8.050;2023-09-19T03:18:30;1.52;;;0.73;;
35257;SDS011;21385;50.878;8.050;2023-09-19T03:20:59;6.82;;;0.90;;
35257;SDS011;21385;50.878;8.050;2023-09-19T03:23:25;5.43;;;1.00;;
35257;SDS011;21385;50.878;8.050;2023-09-19T03:25:52;7.05;;;1.17;;
35257;SDS011;21385;50.878;8.050;2023-09-19T03:28:18;1.83;;;1.13;;
35257;SDS011;21385;50.878;8.050;2023-09-19T03:30:45;1.83;;;0.60;;
35257;SDS011;21385;50.878;8.050;2023-09-19T03:33:11;2.88;;;0.70;;
35257;SDS011;21385;50.878;8.050;2023-09-19T03:35:37;1.65;;;0.90;;
35257;SDS011;21385;50.878;8.050;2023-09-19T03:38:04;1.77;;;1.33;;
35257;SDS011;21385;50.878;8.050;2023-09-19T03:40:30;5.15;;;1.05;;
35257;SDS011;21385;50.878;8.050;2023-09-19T03:42:56;2.25;;;1.65;;
35257;SDS011;21385;50.878;8.050;2023-09-19T03:45:25;1.10;;;0.75;;
35257;SDS011;21385;50.878;8.050;2023-09-19T03:47:50;2.38;;;0.73;;
35257;SDS011;21385;50.878;8.050;2023-09-19T03:50:16;4.32;;;0.98;;
35257;SDS011;21385;50.878;8.050;2023-09-19T03:52:43;3.70;;;1.00;;
35257;SDS011;21385;50.878;8.050;2023-09-19T03:55:09;4.95;;;1.30;;
35257;SDS011;21385;50.878;8.050;2023-09-19T03:57:35;2.28;;;1.23;;
35257;SDS011;21385;50.878;8.050;2023-09-19T04:00:02;2.58;;;1.63;;
35257;SDS011;21385;50.878;8.050;2023-09-19T04:02:30;2.22;;;0.95;;
35257;SDS011;21385;50.878;8.050;2023-09-19T04:04:58;1.85;;;1.42;;
35257;SDS011;21385;50.878;8.050;2023-09-19T04:07:24;9.70;;;1.52;;
35257;SDS011;21385;50.878;8.050;2023-09-19T04:09:51;7.63;;;1.55;;
35257;SDS011;21385;50.878;8.050;2023-09-19T04:12:18;4.00;;;1.85;;
35257;SDS011;21385;50.878;8.050;2023-09-19T04:14:44;14.25;;;3.33;;
35257;SDS011;21385;50.878;8.050;2023-09-19T04:17:10;11.30;;;4.50;;
35257;SDS011;21385;50.878;8.050;2023-09-19T04:19:36;22.90;;;6.55;;
35257;SDS011;21385;50.878;8.050;2023-09-19T04:22:02;16.25;;;4.10;;
35257;SDS011;21385;50.878;8.050;2023-09-19T04:24:29;7.95;;;3.50;;
35257;SDS011;21385;50.878;8.050;2023-09-19T04:26:54;13.65;;;3.80;;
35257;SDS011;21385;50.878;8.050;2023-09-19T04:29:20;5.53;;;2.55;;
35257;SDS011;21385;50.878;8.050;2023-09-19T04:31:45;7.47;;;2.00;;
35257;SDS011;21385;50.878;8.050;2023-09-19T04:34:11;17.58;;;2.35;;
35257;SDS011;21385;50.878;8.050;2023-09-19T04:36:40;11.85;;;2.03;;
35257;SDS011;21385;50.878;8.050;2023-09-19T04:39:06;11.27;;;1.45;;
35257;SDS011;21385;50.878;8.050;2023-09-19T04:41:32;11.65;;;1.17;;
35257;SDS011;21385;50.878;8.050;2023-09-19T04:43:59;5.80;;;2.72;;
35257;SDS011;21385;50.878;8.050;2023-09-19T04:46:25;5.32;;;2.80;;
35257;SDS011;21385;50.878;8.050;2023-09-19T04:48:50;6.32;;;2.22;;
35257;SDS011;21385;50.878;8.050;2023-09-19T04:51:16;6.22;;;2.42;;
35257;SDS011;21385;50.878;8.050;2023-09-19T04:53:43;5.53;;;2.67;;
35257;SDS011;21385;50.878;8.050;2023-09-19T04:56:09;8.02;;;2.40;;
35257;SDS011;21385;50.878;8.050;2023-09-19T04:58:34;4.20;;;1.85;;
35257;SDS011;21385;50.878;8.050;2023-09-19T05:01:00;2.63;;;1.33;;
35257;SDS011;21385;50.878;8.050;2023-09-19T05:03:29;4.63;;;1.65;;
35257;SDS011;21385;50.878;8.050;2023-09-19T05:05:55;1.85;;;1.33;;
35257;SDS011;21385;50.878;8.050;2023-09-19T05:08:20;3.90;;;1.48;;
35257;SDS011;21385;50.878;8.050;2023-09-19T05:10:47;3.28;;;0.90;;
35257;SDS011;21385;50.878;8.050;2023-09-19T05:13:13;6.68;;;1.45;;
35257;SDS011;21385;50.878;8.050;2023-09-19T05:15:39;6.20;;;1.17;;
35257;SDS011;21385;50.878;8.050;2023-09-19T05:18:05;1.75;;;1.20;;
35257;SDS011;21385;50.878;8.050;2023-09-19T05:20:31;11.68;;;2.33;;
35257;SDS011;21385;50.878;8.050;2023-09-19T05:25:34;5.25;;;1.15;;
35257;SDS011;21385;50.878;8.050;2023-09-19T05:28:07;2.40;;;1.20;;
35257;SDS011;21385;50.878;8.050;2023-09-19T05:30:34;2.92;;;1.42;;
35257;SDS011;21385;50.878;8.050;2023-09-19T05:33:08;2.28;;;1.30;;
35257;SDS011;21385;50.878;8.050;2023-09-19T05:35:34;3.65;;;0.70;;
35257;SDS011;21385;50.878;8.050;2023-09-19T05:38:04;6.50;;;2.07;;
35257;SDS011;21385;50.878;8.050;2023-09-19T05:40:33;3.03;;;1.38;;
35257;SDS011;21385;50.878;8.050;2023-09-19T05:43:00;2.42;;;1.20;;
35257;SDS011;21385;50.878;8.050;2023-09-19T05:45:26;4.70;;;1.13;;
35257;SDS011;21385;50.878;8.050;2023-09-19T05:47:52;3.00;;;1.20;;
35257;SDS011;21385;50.878;8.050;2023-09-19T05:50:26;4.03;;;1.10;;
35257;SDS011;21385;50.878;8.050;2023-09-19T05:52:54;1.50;;;1.27;;
35257;SDS011;21385;50.878;8.050;2023-09-19T05:55:21;13.82;;;1.55;;
35257;SDS011;21385;50.878;8.050;2023-09-19T05:57:49;3.15;;;1.52;;
35257;SDS011;21385;50.878;8.050;2023-09-19T06:00:16;6.43;;;2.08;;
35257;SDS011;21385;50.878;8.050;2023-09-19T06:02:51;4.22;;;1.58;;
35257;SDS011;21385;50.878;8.050;2023-09-19T06:05:17;4.95;;;1.70;;
35257;SDS011;21385;50.878;8.050;2023-09-19T06:07:44;9.15;;;1.65;;
35257;SDS011;21385;50.878;8.050;2023-09-19T06:10:09;2.05;;;1.40;;
35257;SDS011;21385;50.878;8.050;2023-09-19T06:12:38;6.43;;;1.42;;
35257;SDS011;21385;50.878;8.050;2023-09-19T06:15:05;7.18;;;1.27;;
35257;SDS011;21385;50.878;8.050;2023-09-19T06:17:33;2.40;;;0.95;;
35257;SDS011;21385;50.878;8.050;2023-09-19T06:20:02;3.60;;;1.50;;
35257;SDS011;21385;50.878;8.050;2023-09-19T06:22:37;2.67;;;1.17;;
35257;SDS011;21385;50.878;8.050;2023-09-19T06:25:03;1.27;;;0.95;;
35257;SDS011;21385;50.878;8.050;2023-09-19T06:27:29;4.22;;;1.63;;
35257;SDS011;21385;50.878;8.050;2023-09-19T06:29:55;3.53;;;1.60;;
35257;SDS011;21385;50.878;8.050;2023-09-19T06:32:26;4.93;;;1.55;;
35257;SDS011;21385;50.878;8.050;2023-09-19T06:34:52;4.75;;;1.15;;
35257;SDS011;21385;50.878;8.050;2023-09-19T06:37:19;3.78;;;1.38;;
35257;SDS011;21385;50.878;8.050;2023-09-19T06:39:46;2.30;;;1.10;;
35257;SDS011;21385;50.878;8.050;2023-09-19T06:42:13;4.45;;;1.73;;
35257;SDS011;21385;50.878;8.050;2023-09-19T06:44:38;5.57;;;1.08;;
35257;SDS011;21385;50.878;8.050;2023-09-19T06:47:04;4.82;;;1.67;;
35257;SDS011;21385;50.878;8.050;2023-09-19T06:49:31;6.97;;;2.28;;
35257;SDS011;21385;50.878;8.050;2023-09-19T06:51:57;4.72;;;1.05;;
35257;SDS011;21385;50.878;8.050;2023-09-19T06:54:24;1.52;;;0.95;;
35257;SDS011;21385;50.878;8.050;2023-09-19T06:56:49;3.83;;;1.23;;
35257;SDS011;21385;50.878;8.050;2023-09-19T06:59:15;1.08;;;0.85;;
35257;SDS011;21385;50.878;8.050;2023-09-19T07:01:41;5.53;;;1.00;;
35257;SDS011;21385;50.878;8.050;2023-09-19T07:04:09;2.78;;;1.73;;
35257;SDS011;21385;50.878;8.050;2023-09-19T07:06:35;4.78;;;1.20;;
35257;SDS011;21385;50.878;8.050;2023-09-19T07:09:00;12.32;;;2.00;;
35257;SDS011;21385;50.878;8.050;2023-09-19T07:11:26;5.68;;;1.38;;
35257;SDS011;21385;50.878;8.050;2023-09-19T07:13:52;4.63;;;1.48;;
35257;SDS011;21385;50.878;8.050;2023-09-19T07:16:18;8.25;;;1.60;;
35257;SDS011;21385;50.878;8.050;2023-09-19T07:18:54;4.50;;;0.93;;
35257;SDS011;21385;50.878;8.050;2023-09-19T07:21:21;1.58;;;0.73;;
35257;SDS011;21385;50.878;8.050;2023-09-19T07:23:47;1.73;;;1.30;;
35257;SDS011;21385;50.878;8.050;2023-09-19T07:26:13;4.30;;;1.17;;
35257;SDS011;21385;50.878;8.050;2023-09-19T07:28:38;4.53;;;0.90;;
35257;SDS011;21385;50.878;8.050;2023-09-19T07:31:04;2.05;;;1.55;;
35257;SDS011;21385;50.878;8.050;2023-09-19T07:33:30;4.82;;;1.48;;
35257;SDS011;21385;50.878;8.050;2023-09-19T07:35:56;4.03;;;1.55;;
35257;SDS011;21385;50.878;8.050;2023-09-19T07:38:22;2.33;;;1.17;;
35257;SDS011;21385;50.878;8.050;2023-09-19T07:40:47;3.47;;;1.63;;
35257;SDS011;21385;50.878;8.050;2023-09-19T07:43:13;2.17;;;0.95;;
35257;SDS011;21385;50.878;8.050;2023-09-19T07:45:39;2.75;;;0.75;;
35257;SDS011;21385;50.878;8.050;2023-09-19T07:48:04;4.18;;;1.70;;
35257;SDS011;21385;50.878;8.050;2023-09-19T07:50:33;22.15;;;2.05;;
35257;SDS011;21385;50.878;8.050;2023-09-19T07:53:01;1.57;;;1.20;;
35257;SDS011;21385;50.878;8.050;2023-09-19T07:55:30;2.88;;;1.58;;
35257;SDS011;21385;50.878;8.050;2023-09-19T07:57:55;7.15;;;1.27;;
35257;SDS011;21385;50.878;8.050;2023-09-19T08:00:21;3.90;;;2.13;;
35257;SDS011;21385;50.878;8.050;2023-09-19T08:02:47;3.55;;;1.30;;
35257;SDS011;21385;50.878;8.050;2023-09-19T08:05:13;1.88;;;0.90;;
35257;SDS011;21385;50.878;8.050;2023-09-19T08:07:43;2.55;;;1.95;;
35257;SDS011;21385;50.878;8.050;2023-09-19T08:10:13;4.57;;;2.28;;
35257;SDS011;21385;50.878;8.050;2023-09-19T08:12:40;13.65;;;1.60;;
35257;SDS011;21385;50.878;8.050;2023-09-19T08:15:17;5.47;;;1.30;;
35257;SDS011;21385;50.878;8.050;2023-09-19T08:17:46;2.42;;;1.25;;
35257;SDS011;21385;50.878;8.050;2023-09-19T08:20:12;3.40;;;1.55;;
35257;SDS011;21385;50.878;8.050;2023-09-19T08:22:43;2.25;;;1.25;;
35257;SDS011;21385;50.878;8.050;2023-09-19T08:25:12;12.13;;;2.55;;
35257;SDS011;21385;50.878;8.050;2023-09-19T08:27:38;3.20;;;1.63;;
35257;SDS011;21385;50.878;8.050;2023-09-19T08:30:04;2.80;;;1.27;;
35257;SDS011;21385;50.878;8.050;2023-09-19T08:32:31;2.97;;;1.90;;
35257;SDS011;21385;50.878;8.050;2023-09-19T08:34:57;10.25;;;2.63;;
35257;SDS011;21385;50.878;8.050;2023-09-19T08:37:22;8.25;;;2.60;;
35257;SDS011;21385;50.878;8.050;2023-09-19T08:39:48;8.73;;;2.00;;
35257;SDS011;21385;50.878;8.050;2023-09-19T08:42:14;2.08;;;1.50;;
35257;SDS011;21385;50.878;8.050;2023-09-19T08:44:41;7.05;;;1.38;;
35257;SDS011;21385;50.878;8.050;2023-09-19T08:47:09;1.60;;;1.00;;
35257;SDS011;21385;50.878;8.050;2023-09-19T08:52:42;4.07;;;1.17;;
35257;SDS011;21385;50.878;8.050;2023-09-19T08:55:11;7.50;;;1.23;;
35257;SDS011;21385;50.878;8.050;2023-09-19T08:57:38;3.63;;;1.23;;
35257;SDS011;21385;50.878;8.050;2023-09-19T09:00:07;12.73;;;1.83;;
35257;SDS011;21385;50.878;8.050;2023-09-19T09:02:39;10.30;;;2.72;;
35257;SDS011;21385;50.878;8.050;2023-09-19T09:07:35;4.60;;;2.03;;
35257;SDS011;21385;50.878;8.050;2023-09-19T09:10:02;3.75;;;1.63;;
35257;SDS011;21385;50.878;8.050;2023-09-19T09:12:28;6.13;;;1.67;;
35257;SDS011;21385;50.878;8.050;2023-09-19T09:14:54;4.55;;;1.77;;
35257;SDS011;21385;50.878;8.050;2023-09-19T09:17:21;8.25;;;1.63;;
35257;SDS011;21385;50.878;8.050;2023-09-19T09:19:47;5.05;;;1.50;;
35257;SDS011;21385;50.878;8.050;2023-09-19T09:22:13;1.38;;;1.05;;
35257;SDS011;21385;50.878;8.050;2023-09-19T09:25:00;2.05;;;0.98;;
35257;SDS011;21385;50.878;8.050;2023-09-19T09:27:30;3.75;;;1.88;;
35257;SDS011;21385;50.878;8.050;2023-09-19T09:29:57;6.45;;;2.08;;
35257;SDS011;21385;50.878;8.050;2023-09-19T09:34:52;5.82;;;2.28;;
35257;SDS011;21385;50.878;8.050;2023-09-19T09:37:21;2.88;;;1.38;;
35257;SDS011;21385;50.878;8.050;2023-09-19T09:39:51;3.60;;;1.80;;
35257;SDS011;21385;50.878;8.050;2023-09-19T09:42:34;7.63;;;2.17;;
35257;SDS011;21385;50.878;8.050;2023-09-19T09:47:57;5.88;;;2.03;;
35257;SDS011;21385;50.878;8.050;2023-09-19T09:50:28;1.23;;;1.00;;
35257;SDS011;21385;50.878;8.050;2023-09-19T09:56:05;2.58;;;1.17;;
35257;SDS011;21385;50.878;8.050;2023-09-19T09:58:36;4.18;;;1.50;;
35257;SDS011;21385;50.878;8.050;2023-09-19T10:01:03;2.90;;;1.85;;
35257;SDS011;21385;50.878;8.050;2023-09-19T10:03:36;5.38;;;1.52;;
35257;SDS011;21385;50.878;8.050;2023-09-19T10:06:13;6.60;;;1.85;;
35257;SDS011;21385;50.878;8.050;2023-09-19T10:09:07;2.20;;;1.23;;
35257;SDS011;21385;50.878;8.050;2023-09-19T10:12:21;10.52;;;1.17;;
35257;SDS011;21385;50.878;8.050;2023-09-19T10:14:30;5.47;;;1.10;;
35257;SDS011;21385;50.878;8.050;2023-09-19T10:17:00;5.32;;;1.63;;
35257;SDS011;21385;50.878;8.050;2023-09-19T10:19:30;1.95;;;0.80;;
35257;SDS011;21385;50.878;8.050;2023-09-19T10:22:02;1.15;;;0.98;;
35257;SDS011;21385;50.878;8.050;2023-09-19T10:24:29;10.50;;;1.83;;
35257;SDS011;21385;50.878;8.050;2023-09-19T10:26:59;3.90;;;1.27;;
35257;SDS011;21385;50.878;8.050;2023-09-19T10:29:25;4.10;;;1.45;;
35257;SDS011;21385;50.878;8.050;2023-09-19T10:31:54;3.30;;;0.77;;
35257;SDS011;21385;50.878;8.050;2023-09-19T10:34:23;2.25;;;1.23;;
35257;SDS011;21385;50.878;8.050;2023-09-19T10:36:51;8.57;;;1.42;;
35257;SDS011;21385;50.878;8.050;2023-09-19T10:39:19;2.10;;;1.50;;
35257;SDS011;21385;50.878;8.050;2023-09-19T10:41:50;1.83;;;0.98;;
35257;SDS011;21385;50.878;8.050;2023-09-19T10:44:19;4.20;;;1.55;;
35257;SDS011;21385;50.878;8.050;2023-09-19T10:46:48;1.90;;;0.95;;
35257;SDS011;21385;50.878;8.050;2023-09-19T10:49:14;1.73;;;0.70;;
35257;SDS011;21385;50.878;8.050;2023-09-19T10:51:41;5.63;;;1.08;;
35257;SDS011;21385;50.878;8.050;2023-09-19T10:54:08;2.28;;;1.17;;
35257;SDS011;21385;50.878;8.050;2023-09-19T10:56:38;2.85;;;1.60;;
35257;SDS011;21385;50.878;8.050;2023-09-19T10:59:16;3.42;;;1.63;;
35257;SDS011;21385;50.878;8.050;2023-09-19T11:01:46;2.70;;;1.08;;
35257;SDS011;21385;50.878;8.050;2023-09-19T11:04:29;6.00;;;1.77;;
35257;SDS011;21385;50.878;8.050;2023-09-19T11:07:11;3.17;;;1.08;;
35257;SDS011;21385;50.878;8.050;2023-09-19T11:09:57;2.80;;;1.17;;
35257;SDS011;21385;50.878;8.050;2023-09-19T11:15:01;2.58;;;1.20;;
35257;SDS011;21385;50.878;8.050;2023-09-19T11:30:46;5.35;;;0.90;;
35257;SDS011;21385;50.878;8.050;2023-09-19T11:35:59;2.17;;;1.20;;
35257;SDS011;21385;50.878;8.050;2023-09-19T11:46:28;3.15;;;0.90;;
35257;SDS011;21385;50.878;8.050;2023-09-19T11:49:13;2.95;;;1.17;;
35257;SDS011;21385;50.878;8.050;2023-09-19T11:51:45;1.52;;;1.17;;
35257;SDS011;21385;50.878;8.050;2023-09-19T11:54:12;2.38;;;1.00;;
35257;SDS011;21385;50.878;8.050;2023-09-19T11:56:56;4.68;;;0.95;;
35257;SDS011;21385;50.878;8.050;2023-09-19T11:59:29;2.58;;;1.45;;
35257;SDS011;21385;50.878;8.050;2023-09-19T12:01:56;4.68;;;1.92;;
35257;SDS011;21385;50.878;8.050;2023-09-19T12:04:33;2.13;;;1.25;;
35257;SDS011;21385;50.878;8.050;2023-09-19T12:07:08;3.60;;;1.88;;
35257;SDS011;21385;50.878;8.050;2023-09-19T12:09:45;4.57;;;1.27;;
35257;SDS011;21385;50.878;8.050;2023-09-19T12:12:22;6.72;;;1.50;;
35257;SDS011;21385;50.878;8.050;2023-09-19T12:14:52;5.25;;;1.63;;
35257;SDS011;21385;50.878;8.050;2023-09-19T12:17:18;5.82;;;1.60;;
35257;SDS011;21385;50.878;8.050;2023-09-19T12:19:51;2.13;;;1.33;;
35257;SDS011;21385;50.878;8.050;2023-09-19T12:22:17;2.65;;;1.35;;
35257;SDS011;21385;50.878;8.050;2023-09-19T12:24:45;5.18;;;1.80;;
35257;SDS011;21385;50.878;8.050;2023-09-19T12:27:11;1.10;;;0.90;;
35257;SDS011;21385;50.878;8.050;2023-09-19T12:29:56;2.70;;;1.42;;
35257;SDS011;21385;50.878;8.050;2023-09-19T12:32:36;2.47;;;1.35;;
35257;SDS011;21385;50.878;8.050;2023-09-19T12:35:09;2.22;;;1.23;;
35257;SDS011;21385;50.878;8.050;2023-09-19T12:37:45;3.03;;;1.23;;
35257;SDS011;21385;50.878;8.050;2023-09-19T12:40:18;3.08;;;1.17;;
35257;SDS011;21385;50.878;8.050;2023-09-19T12:42:53;0.95;;;0.77;;
35257;SDS011;21385;50.878;8.050;2023-09-19T12:45:29;11.38;;;1.88;;
35257;SDS011;21385;50.878;8.050;2023-09-19T12:50:59;2.17;;;0.90;;
35257;SDS011;21385;50.878;8.050;2023-09-19T12:53:31;2.33;;;1.42;;
35257;SDS011;21385;50.878;8.050;2023-09-19T12:55:59;2.67;;;1.38;;
35257;SDS011;21385;50.878;8.050;2023-09-19T12:58:25;2.00;;;1.55;;
35257;SDS011;21385;50.878;8.050;2023-09-19T13:00:51;1.48;;;1.25;;
35257;SDS011;21385;50.878;8.050;2023-09-19T13:05:50;4.18;;;1.85;;
35257;SDS011;21385;50.878;8.050;2023-09-19T13:08:27;2.70;;;1.00;;
35257;SDS011;21385;50.878;8.050;2023-09-19T13:11:14;6.88;;;1.83;;
35257;SDS011;21385;50.878;8.050;2023-09-19T13:13:47;1.42;;;1.10;;
35257;SDS011;21385;50.878;8.050;2023-09-19T13:16:19;1.35;;;1.05;;
35257;SDS011;21385;50.878;8.050;2023-09-19T13:18:51;2.42;;;1.08;;
35257;SDS011;21385;50.878;8.050;2023-09-19T13:21:39;3.33;;;1.50;;
35257;SDS011;21385;50.878;8.050;2023-09-19T13:24:18;2.15;;;1.30;;
35257;SDS011;21385;50.878;8.050;2023-09-19T13:26:44;2.60;;;1.38;;
35257;SDS011;21385;50.878;8.050;2023-09-19T13:29:10;1.65;;;1.35;;
35257;SDS011;21385;50.878;8.050;2023-09-19T13:31:36;6.18;;;1.35;;
35257;SDS011;21385;50.878;8.050;2023-09-19T13:34:06;2.60;;;1.15;;
35257;SDS011;21385;50.878;8.050;2023-09-19T13:36:32;1.33;;;1.17;;
35257;SDS011;21385;50.878;8.050;2023-09-19T13:38:58;3.65;;;1.67;;
35257;SDS011;21385;50.878;8.050;2023-09-19T13:41:25;6.63;;;1.55;;
35257;SDS011;21385;50.878;8.050;2023-09-19T13:43:51;1.88;;;1.05;;
35257;SDS011;21385;50.878;8.050;2023-09-19T13:46:17;2.03;;;1.27;;
35257;SDS011;21385;50.878;8.050;2023-09-19T13:48:50;2.75;;;1.33;;
35257;SDS011;21385;50.878;8.050;2023-09-19T13:51:19;3.33;;;1.15;;
35257;SDS011;21385;50.878;8.050;2023-09-19T13:53:47;3.13;;;0.90;;
35257;SDS011;21385;50.878;8.050;2023-09-19T13:56:13;1.52;;;0.85;;
35257;SDS011;21385;50.878;8.050;2023-09-19T13:58:39;5.45;;;1.38;;
35257;SDS011;21385;50.878;8.050;2023-09-19T14:01:06;2.10;;;0.75;;
35257;SDS011;21385;50.878;8.050;2023-09-19T14:03:37;1.10;;;0.98;;
35257;SDS011;21385;50.878;8.050;2023-09-19T14:06:03;4.03;;;1.27;;
35257;SDS011;21385;50.878;8.050;2023-09-19T14:08:29;2.75;;;1.23;;
35257;SDS011;21385;50.878;8.050;2023-09-19T14:10:54;2.17;;;1.48;;
35257;SDS011;21385;50.878;8.050;2023-09-19T14:13:21;3.65;;;1.10;;
35257;SDS011;21385;50.878;8.050;2023-09-19T14:15:46;1.30;;;0.80;;
35257;SDS011;21385;50.878;8.050;2023-09-19T14:18:12;2.95;;;1.25;;
35257;SDS011;21385;50.878;8.050;2023-09-19T14:20:38;9.73;;;1.70;;
35257;SDS011;21385;50.878;8.050;2023-09-19T14:23:05;4.38;;;1.27;;
35257;SDS011;21385;50.878;8.050;2023-09-19T14:25:33;3.35;;;1.83;;
35257;SDS011;21385;50.878;8.050;2023-09-19T14:28:00;12.82;;;1.48;;
35257;SDS011;21385;50.878;8.050;2023-09-19T14:30:25;2.03;;;0.85;;
35257;SDS011;21385;50.878;8.050;2023-09-19T14:32:51;1.15;;;0.80;;
35257;SDS011;21385;50.878;8.050;2023-09-19T14:35:17;2.15;;;0.88;;
35257;SDS011;21385;50.878;8.050;2023-09-19T14:37:43;2.40;;;0.65;;
35257;SDS011;21385;50.878;8.050;2023-09-19T14:40:10;0.75;;;0.70;;
35257;SDS011;21385;50.878;8.050;2023-09-19T14:42:38;2.35;;;1.15;;
35257;SDS011;21385;50.878;8.050;2023-09-19T14:45:04;10.02;;;1.35;;
35257;SDS011;21385;50.878;8.050;2023-09-19T14:47:31;5.40;;;0.88;;
35257;SDS011;21385;50.878;8.050;2023-09-19T14:49:59;3.97;;;0.82;;
35257;SDS011;21385;50.878;8.050;2023-09-19T14:52:25;6.57;;;1.33;;
35257;SDS011;21385;50.878;8.050;2023-09-19T14:54:53;5.22;;;1.48;;
35257;SDS011;21385;50.878;8.050;2023-09-19T14:57:20;3.92;;;1.13;;
35257;SDS011;21385;50.878;8.050;2023-09-19T14:59:49;2.55;;;1.45;;
35257;SDS011;21385;50.878;8.050;2023-09-19T15:02:15;2.17;;;1.27;;
35257;SDS011;21385;50.878;8.050;2023-09-19T15:04:42;1.88;;;0.90;;
35257;SDS011;21385;50.878;8.050;2023-09-19T15:07:12;1.52;;;1.08;;
35257;SDS011;21385;50.878;8.050;2023-09-19T15:09:41;2.85;;;0.95;;
35257;SDS011;21385;50.878;8.050;2023-09-19T15:12:07;6.50;;;1.02;;
35257;SDS011;21385;50.878;8.050;2023-09-19T15:14:33;1.30;;;0.80;;
35257;SDS011;21385;50.878;8.050;2023-09-19T15:16:58;1.42;;;0.55;;
35257;SDS011;21385;50.878;8.050;2023-09-19T15:19:24;1.20;;;0.98;;
35257;SDS011;21385;50.878;8.050;2023-09-19T15:21:49;2.90;;;1.02;;
35257;SDS011;21385;50.878;8.050;2023-09-19T15:24:15;2.08;;;0.65;;
35257;SDS011;21385;50.878;8.050;2023-09-19T15:26:42;0.82;;;0.68;;
35257;SDS011;21385;50.878;8.050;2023-09-19T15:29:09;1.88;;;0.88;;
35257;SDS011;21385;50.878;8.050;2023-09-19T15:31:35;6.65;;;1.10;;
35257;SDS011;21385;50.878;8.050;2023-09-19T15:34:04;2.40;;;0.90;;
35257;SDS011;21385;50.878;8.050;2023-09-19T15:36:32;3.03;;;0.90;;
35257;SDS011;21385;50.878;8.050;2023-09-19T15:41:33;3.45;;;1.42;;
35257;SDS011;21385;50.878;8.050;2023-09-19T15:44:17;2.40;;;1.08;;
35257;SDS011;21385;50.878;8.050;2023-09-19T15:46:43;1.17;;;0.60;;
35257;SDS011;21385;50.878;8.050;2023-09-19T15:49:10;3.13;;;1.10;;
35257;SDS011;21385;50.878;8.050;2023-09-19T15:51:36;0.93;;;0.80;;
35257;SDS011;21385;50.878;8.050;2023-09-19T15:54:07;2.58;;;1.13;;
35257;SDS011;21385;50.878;8.050;2023-09-19T15:56:34;0.95;;;0.47;;
35257;SDS011;21385;50.878;8.050;2023-09-19T15:59:00;4.30;;;1.00;;
35257;SDS011;21385;50.878;8.050;2023-09-19T16:01:25;0.73;;;0.60;;
35257;SDS011;21385;50.878;8.050;2023-09-19T16:03:52;2.30;;;0.60;;
35257;SDS011;21385;50.878;8.050;2023-09-19T16:06:21;2.13;;;1.00;;